Time;durP1;ratioP1;P1;durP2;ratioP2;P2;SDS_P1;SDS_P2;PMS_P1;PMS_P2;Temp;Humidity;BMP_temperature;BMP_pressure;BME280_temperature;BME280_humidity;BME280_pressure;Samples;Min_cycle;Max_cycle;Signal;HPM_P1;HPM_P2
2023/01/20 00:02:13;;;;;;;;;;;-1.50;99.90;;;;;;4979850;28;20393;-92
2023/01/20 00:04:39;;;;;;;;;;;-1.60;99.90;;;;;;4423424;28;15781640;-92
2023/01/20 00:07:28;;;;;;;;;;;-1.40;99.90;;;;;;4979462;28;19926;-92
2023/01/20 00:09:59;;;;;;;;;;;-1.60;99.90;;;;;;4996954;28;19965;-92
2023/01/20 00:12:40;;;;;;;;;;;-1.70;99.90;;;;;;4997653;28;19968;-92
2023/01/20 00:15:08;;;;;;;;;;;0.00;99.90;;;;;;4996606;28;19929;-93
2023/01/20 00:17:42;;;;;;;;;;;-0.30;99.90;;;;;;4996518;28;19926;-92
2023/01/20 00:20:18;;;;;;;;;;;;;;;;;;;;;
2023/01/20 00:22:48;;;;;;;;;;;0.20;99.90;;;;;;4996778;28;19999;-92
2023/01/20 00:25:32;;;;;;;;;;;-1.80;99.90;;;;;;4996264;28;20341;-92
2023/01/20 00:28:25;;;;;;;;;;;-1.80;99.90;;;;;;4981151;28;19969;-93
2023/01/20 00:31:11;;;;;;;;;;;-1.90;99.90;;;;;;4996768;28;19925;-92
2023/01/20 00:34:04;;;;;;;;;;;-1.90;99.90;;;;;;4981304;28;19976;-92
2023/01/20 00:36:30;;;;;;;;;;;1.70;99.90;;;;;;4979852;28;19932;-92
2023/01/20 00:39:14;;;;;;;;;;;1.80;99.90;;;;;;4996884;28;19929;-92
2023/01/20 00:42:10;;;;;;;;;;;1.40;99.90;;;;;;5010648;28;20285;-93
2023/01/20 00:44:51;;;;;;;;;;;-1.80;99.90;;;;;;5010599;28;19949;-93
2023/01/20 00:50:18;;;;;;;;;;;;;;;;;;;;;
2023/01/20 00:52:49;;;;;;;;;;;-0.10;99.90;;;;;;4996903;28;19926;-92
2023/01/20 00:55:47;;;;;;;;;;;-1.40;99.90;;;;;;4996389;28;20041;-92
2023/01/20 00:58:28;;;;;;;;;;;;;;;;;;;;;
2023/01/20 01:01:07;;;;;;;;;;;-1.70;99.90;;;;;;4995895;28;19926;-93
2023/01/20 01:04:10;;;;;;;;;;;-1.70;99.90;;;;;;4995825;28;20381;-94
2023/01/20 01:06:56;;;;;;;;;;;-1.70;99.90;;;;;;4979107;28;19926;-92
2023/01/20 01:12:30;;;;;;;;;;;-1.70;99.90;;;;;;4995681;28;20231;-93
2023/01/20 01:15:08;;;;;;;;;;;;;;;;;;;;;
2023/01/20 01:17:46;;;;;;;;;;;-1.90;99.90;;;;;;4995070;28;20456;-92
2023/01/20 01:20:21;;;;;;;;;;;-1.30;99.90;;;;;;4996277;28;19926;-92
2023/01/20 01:23:00;;;;;;;;;;;;;;;;;;;;;
2023/01/20 01:25:28;;;;;;;;;;;-2.00;99.90;;;;;;4995255;28;19925;-92
2023/01/20 01:28:04;;;;;;;;;;;;;;;;;;;;;
2023/01/20 01:30:39;;;;;;;;;;;1.60;99.90;;;;;;4995578;28;19926;-93
2023/01/20 01:36:27;;;;;;;;;;;-2.00;99.90;;;;;;4967644;28;19926;-92
2023/01/20 01:39:07;;;;;;;;;;;-1.90;99.90;;;;;;4991376;28;19926;-92
2023/01/20 01:41:48;;;;;;;;;;;-1.90;99.90;;;;;;4995952;28;19926;-92
2023/01/20 01:44:23;;;;;;;;;;;-2.00;99.90;;;;;;4995820;28;19997;-92
2023/01/20 01:47:17;;;;;;;;;;;;;;;;;;;;;
2023/01/20 01:49:48;;;;;;;;;;;-1.90;99.90;;;;;;4994795;28;19926;-92
2023/01/20 01:52:27;;;;;;;;;;;-1.20;99.90;;;;;;4995221;28;19926;-92
2023/01/20 01:58:13;;;;;;;;;;;-1.70;99.90;;;;;;4991809;28;20020;-92
2023/01/20 02:00:56;;;;;;;;;;;;;;;;;;;;;
2023/01/20 02:06:11;;;;;;;;;;;-3.50;99.90;;;;;;4993848;28;19965;-92
2023/01/20 02:11:47;;;;;;;;;;;-1.50;99.90;;;;;;4984415;28;19925;-92
2023/01/20 02:14:27;;;;;;;;;;;-1.60;99.90;;;;;;4995054;28;19926;-92
2023/01/20 02:17:35;;;;;;;;;;;0.40;99.90;;;;;;5002125;28;19925;-92
2023/01/20 02:20:34;;;;;;;;;;;;;;;;;;;;;
2023/01/20 02:26:15;;;;;;;;;;;-1.40;99.90;;;;;;5018144;28;19985;-93
2023/01/20 02:28:41;;;;;;;;;;;-5.00;99.90;;;;;;5002420;28;19910;-93
2023/01/20 02:31:48;;;;;;;;;;;-2.00;99.90;;;;;;5019036;28;19916;-92
2023/01/20 02:34:31;;;;;;;;;;;-1.00;99.90;;;;;;5002868;28;19913;-92
2023/01/20 02:37:09;;;;;;;;;;;-0.70;99.90;;;;;;5018567;28;19965;-93
2023/01/20 02:42:26;;;;;;;;;;;-1.20;99.90;;;;;;5004918;28;20278;-91
2023/01/20 02:45:17;;;;;;;;;;;1.90;99.90;;;;;;4994958;28;19926;-92
2023/01/20 02:47:53;;;;;;;;;;;0.80;99.90;;;;;;4995211;28;19926;-92
2023/01/20 02:50:39;;;;;;;;;;;-1.00;99.90;;;;;;4993562;28;20477;-92
2023/01/20 02:53:16;;;;;;;;;;;;;;;;;;;;;
2023/01/20 02:55:46;;;;;;;;;;;0.20;99.90;;;;;;4994476;28;20317;-92
2023/01/20 02:58:43;;;;;;;;;;;;;;;;;;;;;
2023/01/20 03:01:29;;;;;;;;;;;-1.00;99.90;;;;;;4994174;28;19925;-91
2023/01/20 03:04:11;;;;;;;;;;;;;;;;;;;;;
2023/01/20 03:13:42;;;;;;;;;;;;;;;;;;;;;
2023/01/20 03:16:17;;;;;;;;;;;-1.20;99.90;;;;;;4993757;28;19933;-93
2023/01/20 03:18:48;;;;;;;;;;;-1.20;99.90;;;;;;4994664;28;19926;-91
2023/01/20 03:21:20;;;;;;;;;;;-1.20;99.90;;;;;;4994713;28;19949;-92
2023/01/20 03:24:05;;;;;;;;;;;-1.50;99.90;;;;;;4994544;28;19933;-92
2023/01/20 03:26:51;;;;;;;;;;;-1.30;99.90;;;;;;4994008;28;19976;-92
2023/01/20 03:29:32;;;;;;;;;;;;;;;;;;;;;
2023/01/20 03:32:30;;;;;;;;;;;;;;;;;;;;;
2023/01/20 03:35:10;;;;;;;;;;;-1.10;99.90;;;;;;4994672;28;19933;-91
2023/01/20 03:38:10;;;;;;;;;;;2.30;99.90;;;;;;4994398;28;19930;-92
2023/01/20 03:41:16;;;;;;;;;;;-2.50;99.90;;;;;;5008098;28;20023;-92
2023/01/20 03:43:51;;;;;;;;;;;2.20;99.90;;;;;;4994072;28;20346;-94
2023/01/20 03:46:42;;;;;;;;;;;-0.30;99.90;;;;;;4993258;28;19932;-92
2023/01/20 03:49:45;;;;;;;;;;;-1.80;99.90;;;;;;4994417;28;19926;-91
2023/01/20 03:52:45;;;;;;;;;;;;;;;;;;;;;
2023/01/20 03:55:23;;;;;;;;;;;-0.30;99.90;;;;;;4993776;28;19925;-92
2023/01/20 03:58:09;;;;;;;;;;;0.00;99.90;;;;;;4993926;28;19926;-92
2023/01/20 04:00:53;;;;;;;;;;;;;;;;;;;;;
2023/01/20 04:06:42;;;;;;;;;;;0.70;99.90;;;;;;4996089;28;20356;-92
2023/01/20 04:12:20;;;;;;;;;;;-0.40;99.90;;;;;;4989468;28;19926;-92
2023/01/20 04:14:56;;;;;;;;;;;2.50;99.90;;;;;;4997468;28;19930;-93
2023/01/20 04:17:31;;;;;;;;;;;-0.10;99.90;;;;;;4981138;28;20359;-91
2023/01/20 04:20:01;;;;;;;;;;;2.90;99.90;;;;;;4996746;28;20389;-91
2023/01/20 04:22:56;;;;;;;;;;;0.40;99.90;;;;;;5011310;28;19926;-92
2023/01/20 04:25:34;;;;;;;;;;;1.60;99.90;;;;;;4997345;28;19932;-91
2023/01/20 04:28:31;;;;;;;;;;;2.70;99.90;;;;;;4997228;28;19926;-92
2023/01/20 04:31:17;;;;;;;;;;;2.60;99.90;;;;;;4996656;28;19933;-92
2023/01/20 04:33:56;;;;;;;;;;;2.80;99.90;;;;;;4995125;28;19932;-92
2023/01/20 04:36:41;;;;;;;;;;;;;;;;;;;;;
2023/01/20 04:41:56;;;;;;;;;;;1.40;99.90;;;;;;4981882;28;19961;-91
2023/01/20 04:44:34;;;;;;;;;;;2.80;99.90;;;;;;4995496;28;19926;-92
2023/01/20 04:47:10;;;;;;;;;;;-1.00;99.90;;;;;;4980794;28;19926;-91
2023/01/20 04:52:45;;;;;;;;;;;-1.20;99.90;;;;;;4985227;28;19925;-93
2023/01/20 04:55:26;;;;;;;;;;;;;;;;;;;;;
2023/01/20 04:57:57;;;;;;;;;;;-1.80;99.90;;;;;;4996717;28;19925;-91
2023/01/20 05:00:26;;;;;;;;;;;0.40;99.90;;;;;;4995474;28;20374;-92
2023/01/20 05:03:04;;;;;;;;;;;;;;;;;;;;;
2023/01/20 05:05:42;;;;;;;;;;;-0.70;99.90;;;;;;4995006;28;19926;-93
2023/01/20 05:08:21;;;;;;;;;;;1.00;99.90;;;;;;5010191;28;20016;-92
2023/01/20 05:10:50;;;;;;;;;;;-2.90;99.90;;;;;;4995981;28;19926;-92
2023/01/20 05:13:38;;;;;;;;;;;1.30;99.90;;;;;;4994493;28;19980;-92
2023/01/20 05:16:18;;;;;;;;;;;;;;;;;;;;;
2023/01/20 05:19:01;;;;;;;;;;;-0.70;99.90;;;;;;4995431;28;19925;-92
2023/01/20 05:21:56;;;;;;;;;;;-2.10;99.90;;;;;;4996046;28;19949;-92
2023/01/20 05:24:29;;;;;;;;;;;1.40;99.90;;;;;;4996243;28;20017;-92
2023/01/20 05:29:55;;;;;;;;;;;2.50;99.90;;;;;;4996226;28;19925;-92
2023/01/20 05:35:27;;;;;;;;;;;2.70;99.90;;;;;;4981247;28;19926;-91
2023/01/20 05:38:28;;;;;;;;;;;;;;;;;;;;;
2023/01/20 05:41:07;;;;;;;;;;;-0.70;99.90;;;;;;4994721;28;19926;-92
2023/01/20 05:49:15;;;;;;;;;;;1.30;99.90;;;;;;4995641;28;19925;-92
2023/01/20 05:51:59;;;;;;;;;;;0.20;99.90;;;;;;4979492;28;19926;-92
2023/01/20 05:54:45;;;;;;;;;;;2.70;99.90;;;;;;4978832;28;19985;-92
2023/01/20 05:57:18;;;;;;;;;;;0.00;99.90;;;;;;4995704;28;19926;-92
2023/01/20 06:03:08;;;;;;;;;;;2.60;99.90;;;;;;4980849;28;19926;-93
2023/01/20 06:05:43;;;;;;;;;;;0.30;99.90;;;;;;4990819;28;20020;-92
2023/01/20 06:08:11;;;;;;;;;;;0.70;99.90;;;;;;4994924;28;20271;-92
2023/01/20 06:10:46;;;;;;;;;;;-0.20;99.90;;;;;;4994599;28;19926;-92
2023/01/20 06:13:25;;;;;;;;;;;;;;;;;;;;;
2023/01/20 06:16:20;;;;;;;;;;;2.80;99.90;;;;;;4993988;28;20012;-92
2023/01/20 06:19:02;;;;;;;;;;;-0.30;99.90;;;;;;4993529;28;19989;-93
2023/01/20 06:21:58;;;;;;;;;;;;;;;;;;;;;
2023/01/20 06:24:35;;;;;;;;;;;1.20;99.90;;;;;;5012380;28;19925;-91
2023/01/20 06:27:22;;;;;;;;;;;0.00;99.90;;;;;;4995161;28;19933;-91
2023/01/20 06:30:13;;;;;;;;;;;0.90;99.90;;;;;;4994764;28;20255;-91
2023/01/20 06:32:40;;;;;;;;;;;-0.10;99.90;;;;;;4994347;28;19926;-92
2023/01/20 06:35:19;;;;;;;;;;;0.30;99.90;;;;;;4994452;28;19926;-90
2023/01/20 06:38:21;;;;;;;;;;;1.90;99.90;;;;;;5008171;28;19953;-91
2023/01/20 06:43:38;;;;;;;;;;;-0.20;99.90;;;;;;4986665;28;19929;-91
2023/01/20 06:46:40;;;;;;;;;;;-2.70;99.90;;;;;;4994357;28;19925;-91
2023/01/20 06:49:12;;;;;;;;;;;-1.30;99.90;;;;;;4994172;28;19929;-91
2023/01/20 06:52:11;;;;;;;;;;;-2.30;99.90;;;;;;4993082;28;20366;-91
2023/01/20 06:54:50;;;;;;;;;;;;;;;;;;;;;
2023/01/20 06:57:42;;;;;;;;;;;0.20;99.90;;;;;;4994716;28;19933;-91
2023/01/20 07:00:40;;;;;;;;;;;2.10;99.90;;;;;;4993979;28;19976;-91
2023/01/20 07:03:24;;;;;;;;;;;-0.10;99.90;;;;;;4992622;28;19926;-92
2023/01/20 07:13:29;;;;;;;;;;;-0.40;99.90;;;;;;4995855;28;19932;-91
2023/01/20 07:16:04;;;;;;;;;;;0.00;99.90;;;;;;5017116;28;19921;-90
2023/01/20 07:18:39;;;;;;;;;;;;;;;;;;;;;
2023/01/20 07:21:28;;;;;;;;;;;0.10;99.90;;;;;;5015403;28;19967;-91
2023/01/20 07:24:17;;;;;;;;;;;-0.30;99.90;;;;;;5016934;28;19925;-92
2023/01/20 07:26:43;;;;;;;;;;;-0.20;99.90;;;;;;5013849;28;19952;-90
2023/01/20 07:29:13;;;;;;;;;;;2.10;99.90;;;;;;5012175;28;20029;-91
2023/01/20 07:31:46;;;;;;;;;;;0.30;99.90;;;;;;5010143;28;19910;-91
2023/01/20 07:34:23;;;;;;;;;;;-2.30;99.90;;;;;;5013400;28;19953;-92
2023/01/20 07:37:30;;;;;;;;;;;-2.80;99.90;;;;;;5011880;28;19953;-91
2023/01/20 07:40:06;;;;;;;;;;;0.50;99.90;;;;;;4997887;28;19926;-91
2023/01/20 07:42:35;;;;;;;;;;;0.40;99.90;;;;;;4982440;28;19926;-90
2023/01/20 07:45:11;;;;;;;;;;;;;;;;;;;;;
2023/01/20 07:47:39;;;;;;;;;;;-2.00;99.90;;;;;;4997209;28;19926;-90
2023/01/20 07:50:28;;;;;;;;;;;2.80;99.90;;;;;;5012766;28;19934;-91
2023/01/20 07:53:18;;;;;;;;;;;1.00;99.90;;;;;;4996771;28;20421;-91
2023/01/20 07:55:46;;;;;;;;;;;0.30;99.90;;;;;;4997336;28;19929;-91
2023/01/20 07:58:20;;;;;;;;;;;-0.30;99.90;;;;;;4996544;28;19926;-90
2023/01/20 08:00:51;;;;;;;;;;;-2.50;99.90;;;;;;4996331;28;19926;-90
2023/01/20 08:03:28;;;;;;;;;;;-0.10;99.90;;;;;;4996601;28;19933;-90
2023/01/20 08:09:14;;;;;;;;;;;;;;;;;;;;;
2023/01/20 08:11:55;;;;;;;;;;;1.20;99.90;;;;;;4996439;28;19948;-90
2023/01/20 08:17:24;;;;;;;;;;;-0.50;99.90;;;;;;4986112;28;19930;-91
2023/01/20 08:20:02;;;;;;;;;;;0.10;99.90;;;;;;4997006;28;19995;-90
2023/01/20 08:22:59;;;;;;;;;;;;;;;;;;;;;
2023/01/20 08:25:30;;;;;;;;;;;-1.80;99.90;;;;;;4996086;28;19926;-90
2023/01/20 08:28:06;;;;;;;;;;;-0.30;99.90;;;;;;4996407;28;20448;-91
2023/01/20 08:31:09;;;;;;;;;;;;;;;;;;;;;
2023/01/20 08:34:01;;;;;;;;;;;-0.30;99.90;;;;;;4996260;28;19930;-90
2023/01/20 08:36:40;;;;;;;;;;;1.60;99.90;;;;;;4996457;28;19969;-90
2023/01/20 08:39:17;;;;;;;;;;;-2.20;99.90;;;;;;4996717;28;19930;-89
2023/01/20 08:41:56;;;;;;;;;;;;;;;;;;;;;
2023/01/20 08:44:45;;;;;;;;;;;-0.20;99.90;;;;;;4996565;28;19926;-90
2023/01/20 08:47:13;;;;;;;;;;;-0.10;99.90;;;;;;4996204;28;19932;-89
2023/01/20 08:49:44;;;;;;;;;;;1.40;99.90;;;;;;4994917;28;19926;-90
2023/01/20 08:52:16;;;;;;;;;;;-0.20;99.90;;;;;;4980405;28;19925;-91
2023/01/20 08:55:04;;;;;;;;;;;0.30;99.90;;;;;;4995883;28;19932;-91
2023/01/20 08:57:37;;;;;;;;;;;0.00;99.90;;;;;;4995598;28;20394;-90
2023/01/20 09:00:26;;;;;;;;;;;0.30;99.90;;;;;;4995133;28;20396;-90
2023/01/20 09:03:05;;;;;;;;;;;;;;;;;;;;;
2023/01/20 09:05:37;;;;;;;;;;;0.00;99.90;;;;;;4995251;28;19932;-89
2023/01/20 09:08:06;;;;;;;;;;;0.20;99.90;;;;;;4995278;28;19930;-89
2023/01/20 09:10:53;;;;;;;;;;;;;;;;;;;;;
2023/01/20 09:13:26;;;;;;;;;;;0.30;99.90;;;;;;4995548;28;19932;-90
2023/01/20 09:16:03;;;;;;;;;;;2.00;99.90;;;;;;4994974;28;19980;-90
2023/01/20 09:18:32;;;;;;;;;;;-0.70;99.90;;;;;;4995453;28;20025;-90
2023/01/20 09:21:08;;;;;;;;;;;1.20;99.90;;;;;;4994668;28;19993;-88
2023/01/20 09:27:05;;;;;;;;;;;0.40;99.90;;;;;;4994777;28;19925;-90
2023/01/20 09:30:00;;;;;;;;;;;2.60;99.90;;;;;;4994228;28;20440;-89
2023/01/20 09:32:55;;;;;;;;;;;;;;;;;;;;;
2023/01/20 09:35:49;;;;;;;;;;;2.30;99.90;;;;;;4994392;28;20010;-91
2023/01/20 09:44:30;;;;;;;;;;;-0.50;99.90;;;;;;4994683;28;20280;-90
2023/01/20 09:47:18;;;;;;;;;;;0.20;99.90;;;;;;4977670;28;20370;-89
2023/01/20 09:56:17;;;;;;;;;;;;;;;;;;;;;
2023/01/20 09:59:14;;;;;;;;;;;0.80;99.90;;;;;;4994612;28;19976;-87
2023/01/20 10:01:57;;;;;;;;;;;0.40;99.90;;;;;;4979899;28;19929;-89
2023/01/20 10:05:05;;;;;;;;;;;;;;;;;;;;;
2023/01/20 10:08:01;;;;;;;;;;;1.10;99.90;;;;;;4990585;28;20396;-89
2023/01/20 10:10:38;;;;;;;;;;;0.50;99.90;;;;;;4980383;28;20021;-89
2023/01/20 10:13:24;;;;;;;;;;;0.70;99.90;;;;;;4981283;28;19936;-90
2023/01/20 10:16:10;;;;;;;;;;;0.70;99.90;;;;;;4997896;28;19941;-90
2023/01/20 10:19:07;;;;;;;;;;;1.30;99.90;;;;;;5012720;28;19975;-90
2023/01/20 10:21:53;;;;;;;;;;;0.40;99.90;;;;;;4993780;28;20421;-90
2023/01/20 10:24:54;;;;;;;;;;;;;;;;;;;;;
2023/01/20 10:28:03;;;;;;;;;;;;;;;;;;;;;
2023/01/20 10:36:49;;;;;;;;;;;-0.10;99.90;;;;;;4988853;28;20016;-90
2023/01/20 10:39:31;;;;;;;;;;;0.90;99.90;;;;;;4993640;28;19937;-90
2023/01/20 10:42:30;;;;;;;;;;;;;;;;;;;;;
2023/01/20 10:45:05;;;;;;;;;;;-0.20;99.90;;;;;;4996700;28;20400;-89
2023/01/20 10:48:04;;;;;;;;;;;0.10;99.90;;;;;;4996762;28;19925;-91
2023/01/20 10:51:14;;;;;;;;;;;;;;;;;;;;;
2023/01/20 10:54:13;;;;;;;;;;;0.70;99.90;;;;;;4997538;28;20021;-91
2023/01/20 10:57:02;;;;;;;;;;;;;;;;;;;;;
2023/01/20 11:02:33;;;;;;;;;;;1.10;99.90;;;;;;5009104;28;19932;-88
2023/01/20 11:05:20;;;;;;;;;;;-0.50;99.90;;;;;;5008229;28;19926;-88
2023/01/20 11:07:55;;;;;;;;;;;0.60;99.90;;;;;;4970344;28;20374;-88
2023/01/20 11:10:40;;;;;;;;;;;1.20;99.90;;;;;;4975726;28;19926;-88
2023/01/20 11:13:28;;;;;;;;;;;-0.70;99.90;;;;;;4994615;28;19933;-89
2023/01/20 11:16:01;;;;;;;;;;;1.00;99.90;;;;;;4977418;28;19930;-88
2023/01/20 11:18:35;;;;;;;;;;;1.30;99.90;;;;;;4976942;28;19972;-89
2023/01/20 11:21:40;;;;;;;;;;;;;;;;;;;;;
2023/01/20 11:24:33;;;;;;;;;;;0.80;99.90;;;;;;4976060;28;19929;-88
2023/01/20 11:27:03;;;;;;;;;;;-0.50;99.90;;;;;;4978295;28;19934;-88
2023/01/20 11:30:00;;;;;;;;;;;;;;;;;;;;;
2023/01/20 11:32:39;;;;;;;;;;;0.90;99.90;;;;;;4977226;28;20024;-87
2023/01/20 11:35:40;;;;;;;;;;;2.60;99.90;;;;;;4978376;28;19932;-88
2023/01/20 11:38:44;;;;;;;;;;;-0.30;99.90;;;;;;4986748;28;19910;-89
2023/01/20 11:41:21;;;;;;;;;;;0.70;99.90;;;;;;5000269;28;19910;-88
2023/01/20 11:46:45;;;;;;;;;;;0.80;99.90;;;;;;4982580;28;19937;-89
2023/01/20 11:49:13;;;;;;;;;;;-0.60;99.90;;;;;;5015798;28;19926;-89
2023/01/20 11:51:52;;;;;;;;;;;1.10;99.90;;;;;;4981237;28;19934;-87
2023/01/20 11:54:43;;;;;;;;;;;0.70;99.90;;;;;;4992821;28;19926;-89
2023/01/20 11:57:18;;;;;;;;;;;0.70;99.90;;;;;;5013442;28;19915;-88
2023/01/20 12:00:06;;;;;;;;;;;2.90;99.90;;;;;;5005417;28;19930;-88
2023/01/20 12:02:51;;;;;;;;;;;1.50;99.90;;;;;;4994160;28;20025;-90
2023/01/20 12:05:36;;;;;;;;;;;0.80;99.90;;;;;;4992698;28;20270;-89
2023/01/20 12:11:23;;;;;;;;;;;2.10;99.90;;;;;;4993485;28;20393;-90
2023/01/20 12:17:20;;;;;;;;;;;-0.70;99.90;;;;;;4920909;29;20383;-89
2023/01/20 12:20:27;;;;;;;;;;;1.00;99.90;;;;;;4921157;29;20307;-90
2023/01/20 12:23:45;;;;;;;;;;;0.80;99.90;;;;;;4990524;28;20369;-89
2023/01/20 12:30:04;;;;;;;;;;;0.70;99.90;;;;;;4991784;28;19925;-87
2023/01/20 12:32:39;;;;;;;;;;;1.00;99.90;;;;;;4997216;28;19940;-89
2023/01/20 12:35:26;;;;;;;;;;;;;;;;;;;;;
2023/01/20 12:41:22;;;;;;;;;;;-0.70;99.90;;;;;;4987860;28;20329;-89
2023/01/20 12:44:12;;;;;;;;;;;-1.00;99.90;;;;;;4998640;28;20008;-89
2023/01/20 12:47:03;;;;;;;;;;;1.00;99.90;;;;;;4983130;28;20250;-88
2023/01/20 12:49:38;;;;;;;;;;;-0.20;99.90;;;;;;4995479;28;20372;-89
2023/01/20 12:52:31;;;;;;;;;;;-0.10;99.90;;;;;;4997681;28;19976;-88
2023/01/20 12:55:24;;;;;;;;;;;1.60;99.90;;;;;;4983082;28;20059;-90
2023/01/20 12:58:43;;;;;;;;;;;;;;;;;;;;;
2023/01/20 13:01:18;;;;;;;;;;;;;;;;;;;;;
2023/01/20 13:04:24;;;;;;;;;;;;;;;;;;;;;
2023/01/20 13:10:44;;;;;;;;;;;2.20;99.90;;;;;;4967067;28;19925;-90
2023/01/20 13:13:45;;;;;;;;;;;0.70;99.90;;;;;;4998260;28;19988;-88
2023/01/20 13:16:43;;;;;;;;;;;0.10;99.90;;;;;;4982615;28;19999;-89
2023/01/20 13:19:23;;;;;;;;;;;0.80;99.90;;;;;;4995655;28;19925;-89
2023/01/20 13:21:54;;;;;;;;;;;1.00;99.90;;;;;;4998225;28;19932;-89
2023/01/20 13:24:48;;;;;;;;;;;-0.50;99.90;;;;;;4982589;28;19933;-88
2023/01/20 13:30:36;;;;;;;;;;;0.50;99.90;;;;;;4984306;28;19926;-89
2023/01/20 13:33:07;;;;;;;;;;;0.90;99.90;;;;;;4981416;28;19925;-89
2023/01/20 13:36:16;;;;;;;;;;;-0.50;99.90;;;;;;4998310;28;19926;-88
2023/01/20 13:45:14;;;;;;;;;;;0.00;99.90;;;;;;4988322;28;19976;-88
2023/01/20 13:47:56;;;;;;;;;;;1.20;99.90;;;;;;4981348;28;19976;-88
2023/01/20 13:50:35;;;;;;;;;;;0.80;99.90;;;;;;4997778;28;19930;-89
2023/01/20 13:53:13;;;;;;;;;;;-0.10;99.90;;;;;;4998179;28;19925;-88
2023/01/20 13:58:41;;;;;;;;;;;1.00;99.90;;;;;;4982233;28;19976;-90
2023/01/20 14:01:21;;;;;;;;;;;-0.70;99.90;;;;;;4997285;28;19929;-90
2023/01/20 14:04:09;;;;;;;;;;;1.30;99.90;;;;;;4997763;28;20281;-88
2023/01/20 14:07:28;;;;;;;;;;;0.90;99.90;;;;;;4994170;28;19932;-88
2023/01/20 14:09:36;;;;;;;;;;;0.50;99.90;;;;;;4987450;28;19976;-89
2023/01/20 14:12:16;;;;;;;;;;;1.40;99.90;;;;;;4994010;28;19929;-88
2023/01/20 14:14:49;;;;;;;;;;;1.50;99.90;;;;;;4994007;28;19929;-90
2023/01/20 14:17:25;;;;;;;;;;;-0.10;99.90;;;;;;4993187;28;20436;-88
2023/01/20 14:20:01;;;;;;;;;;;0.80;99.90;;;;;;4993240;28;19992;-88
2023/01/20 14:22:43;;;;;;;;;;;;;;;;;;;;;
2023/01/20 14:25:24;;;;;;;;;;;0.80;99.90;;;;;;4993930;28;19981;-88
2023/01/20 14:28:00;;;;;;;;;;;3.10;99.90;;;;;;4993028;28;20433;-89
2023/01/20 14:30:47;;;;;;;;;;;2.40;99.90;;;;;;4993893;28;19949;-88
2023/01/20 14:33:23;;;;;;;;;;;-0.10;99.90;;;;;;4994322;28;19929;-88
2023/01/20 14:36:06;;;;;;;;;;;1.00;99.90;;;;;;5008665;28;19936;-89
2023/01/20 14:38:41;;;;;;;;;;;-0.20;99.90;;;;;;4992815;28;19926;-89
2023/01/20 14:41:30;;;;;;;;;;;1.20;99.90;;;;;;4993673;28;19972;-89
2023/01/20 14:44:01;;;;;;;;;;;0.70;99.90;;;;;;4993777;28;19933;-88
2023/01/20 14:49:45;;;;;;;;;;;2.90;99.90;;;;;;4980992;28;19926;-88
2023/01/20 14:52:33;;;;;;;;;;;1.00;99.90;;;;;;4989188;28;19972;-89
2023/01/20 14:55:02;;;;;;;;;;;-0.80;99.90;;;;;;4994079;28;19925;-88
2023/01/20 14:58:06;;;;;;;;;;;;;;;;;;;;;
2023/01/20 15:01:05;;;;;;;;;;;;;;;;;;;;;
2023/01/20 15:07:02;;;;;;;;;;;;;;;;;;;;;
2023/01/20 15:10:08;;;;;;;;;;;;;;;;;;;;;
2023/01/20 15:12:51;;;;;;;;;;;0.70;99.90;;;;;;4994290;28;19926;-90
2023/01/20 15:15:58;;;;;;;;;;;1.00;99.90;;;;;;4978360;28;20030;-91
2023/01/20 15:21:33;;;;;;;;;;;1.70;99.90;;;;;;4953753;28;20013;-91
2023/01/20 15:24:49;;;;;;;;;;;;;;;;;;;;;
2023/01/20 15:34:19;;;;;;;;;;;0.50;99.90;;;;;;4950858;28;19957;-89
2023/01/20 15:37:00;;;;;;;;;;;0.80;99.90;;;;;;4975517;28;19925;-89
2023/01/20 15:39:53;;;;;;;;;;;1.90;99.90;;;;;;4976797;28;19933;-89
2023/01/20 15:42:46;;;;;;;;;;;-0.50;99.90;;;;;;4994133;28;19926;-91
2023/01/20 15:48:12;;;;;;;;;;;;;;;;;;;;;
2023/01/20 15:54:17;;;;;;;;;;;;;;;;;;;;;
2023/01/20 15:56:58;;;;;;;;;;;;;;;;;;;;;
2023/01/20 15:59:44;;;;;;;;;;;;;;;;;;;;;
2023/01/20 16:02:39;;;;;;;;;;;-0.90;99.90;;;;;;5020823;28;19925;-91
2023/01/20 16:05:15;;;;;;;;;;;0.30;99.90;;;;;;5011952;28;19909;-90
2023/01/20 16:11:00;;;;;;;;;;;;;;;;;;;;;
2023/01/20 16:14:00;;;;;;;;;;;;;;;;;;;;;
2023/01/20 16:16:38;;;;;;;;;;;;;;;;;;;;;
2023/01/20 16:19:27;;;;;;;;;;;3.00;99.90;;;;;;4946384;29;20002;-92
2023/01/20 16:22:05;;;;;;;;;;;;;;;;;;;;;
2023/01/20 16:24:43;;;;;;;;;;;0.60;99.90;;;;;;4951021;28;19926;-90
2023/01/20 16:27:15;;;;;;;;;;;0.50;99.90;;;;;;4996319;28;19926;-89
2023/01/20 16:29:56;;;;;;;;;;;1.10;99.90;;;;;;4996799;28;19926;-91
2023/01/20 16:32:30;;;;;;;;;;;-0.10;99.90;;;;;;4996080;28;20380;-90
2023/01/20 16:45:28;;;;;;;;;;;-1.10;99.90;;;;;;4996613;28;20333;-91
2023/01/20 16:48:03;;;;;;;;;;;0.80;99.90;;;;;;5021137;28;20020;-91
2023/01/20 16:50:43;;;;;;;;;;;-0.20;99.90;;;;;;5007378;28;20347;-87
2023/01/20 16:53:13;;;;;;;;;;;0.60;99.90;;;;;;4995421;28;20393;-89
2023/01/20 16:56:01;;;;;;;;;;;3.10;99.90;;;;;;4996264;28;20339;-90
2023/01/20 17:30:07;;;;;;;;;;;;;;;;;;;;;
2023/01/20 17:39:15;;;;;;;;;;;1.70;99.90;;;;;;4954855;28;20254;-92
2023/01/20 17:42:27;;;;;;;;;;;;;;;;;;;;;
2023/01/20 17:48:48;;;;;;;;;;;0.90;99.90;;;;;;4992219;28;19926;-93
2023/01/20 18:01:26;;;;;;;;;;;;;;;;;;;;;
2023/01/20 18:04:28;;;;;;;;;;;;;;;;;;;;;
2023/01/20 18:09:54;;;;;;;;;;;1.50;99.90;;;;;;4996134;28;19929;-90
2023/01/20 18:12:30;;;;;;;;;;;0.60;99.90;;;;;;4997223;28;19972;-91
2023/01/20 18:15:20;;;;;;;;;;;;;;;;;;;;;
2023/01/20 18:17:59;;;;;;;;;;;0.70;99.90;;;;;;4993477;28;19921;-92
2023/01/20 18:21:06;;;;;;;;;;;0.70;99.90;;;;;;4993481;28;19926;-91
2023/01/20 18:23:43;;;;;;;;;;;1.10;99.90;;;;;;4993434;28;19921;-93
2023/01/20 18:26:09;;;;;;;;;;;-0.50;99.90;;;;;;4994521;28;19922;-91
2023/01/20 18:28:36;;;;;;;;;;;2.60;99.90;;;;;;4994419;28;19968;-91
2023/01/20 18:31:14;;;;;;;;;;;3.00;99.90;;;;;;4993809;28;19929;-91
2023/01/20 18:33:53;;;;;;;;;;;0.40;99.90;;;;;;5009512;28;19969;-91
2023/01/20 18:36:49;;;;;;;;;;;;;;;;;;;;;
2023/01/20 18:42:47;;;;;;;;;;;-0.90;99.90;;;;;;4994892;28;19931;-94
2023/01/20 18:45:25;;;;;;;;;;;0.70;99.90;;;;;;4978155;28;20343;-93
2023/01/20 18:51:13;;;;;;;;;;;;;;;;;;;;;
2023/01/20 18:53:44;;;;;;;;;;;0.70;99.90;;;;;;4994084;28;19929;-90
2023/01/20 18:56:11;;;;;;;;;;;1.40;99.90;;;;;;4994954;28;19977;-90
2023/01/20 18:58:57;;;;;;;;;;;0.80;99.90;;;;;;4993640;28;19922;-90
2023/01/20 19:01:32;;;;;;;;;;;2.10;99.90;;;;;;4993837;28;19922;-89
2023/01/20 19:04:08;;;;;;;;;;;1.30;99.90;;;;;;4993937;28;19928;-89
2023/01/20 19:06:35;;;;;;;;;;;1.40;99.90;;;;;;4994540;28;19926;-89
2023/01/20 19:09:04;;;;;;;;;;;1.10;99.90;;;;;;4993336;28;19922;-91
2023/01/20 19:11:38;;;;;;;;;;;2.50;99.90;;;;;;4993517;28;20008;-89
2023/01/20 19:14:32;;;;;;;;;;;3.40;99.90;;;;;;4993982;28;19930;-92
2023/01/20 19:17:25;;;;;;;;;;;;;;;;;;;;;
2023/01/20 19:19:56;;;;;;;;;;;0.50;99.90;;;;;;4994379;28;20025;-92
2023/01/20 19:22:33;;;;;;;;;;;-0.50;99.90;;;;;;4994533;28;19922;-89
2023/01/20 19:25:09;;;;;;;;;;;-0.30;99.90;;;;;;4994360;28;19949;-91
2023/01/20 19:27:40;;;;;;;;;;;0.80;99.90;;;;;;4994251;28;19928;-90
2023/01/20 19:30:10;;;;;;;;;;;2.50;99.90;;;;;;4994061;28;19972;-90
2023/01/20 19:50:01;;;;;;;;;;;0.40;99.90;;;;;;4966589;28;19976;-93
2023/01/20 20:10:11;;;;;;;;;;;-0.50;99.90;;;;;;4934288;29;19946;-92
2023/01/20 20:12:37;;;;;;;;;;;2.90;99.90;;;;;;4970687;28;19926;-91
2023/01/20 20:15:02;;;;;;;;;;;0.30;99.90;;;;;;4954451;28;19926;-92
2023/01/20 20:17:29;;;;;;;;;;;0.30;99.90;;;;;;4962262;28;19925;-93
2023/01/20 20:19:54;;;;;;;;;;;0.30;99.90;;;;;;4965677;28;19936;-91
2023/01/20 20:22:20;;;;;;;;;;;0.30;99.90;;;;;;4955809;28;19942;-90
2023/01/20 20:24:46;;;;;;;;;;;0.30;99.90;;;;;;4973721;28;19926;-93
2023/01/20 20:27:11;;;;;;;;;;;0.30;99.90;;;;;;4995248;28;19926;-93
2023/01/20 20:29:37;;;;;;;;;;;0.30;99.90;;;;;;4959025;28;19937;-92
2023/01/20 20:32:03;;;;;;;;;;;0.90;99.90;;;;;;4959591;28;19969;-94
2023/01/20 20:34:29;;;;;;;;;;;0.30;99.90;;;;;;4970986;28;19929;-95
2023/01/20 20:36:58;;;;;;;;;;;0.30;99.90;;;;;;4975656;28;19925;-93
2023/01/20 20:39:24;;;;;;;;;;;0.60;99.90;;;;;;4972332;28;19930;-94
2023/01/20 20:41:50;;;;;;;;;;;0.20;99.90;;;;;;4964999;28;19933;-93
2023/01/20 20:44:16;;;;;;;;;;;0.20;99.90;;;;;;4981693;28;19926;-92
2023/01/20 20:46:42;;;;;;;;;;;0.20;99.90;;;;;;4956598;28;19926;-90
2023/01/20 20:49:11;;;;;;;;;;;0.10;99.90;;;;;;4956330;28;19925;-93
2023/01/20 20:51:37;;;;;;;;;;;0.20;99.90;;;;;;4972414;28;19933;-92
2023/01/20 20:54:02;;;;;;;;;;;0.20;99.90;;;;;;4951424;28;19926;-92
2023/01/20 20:56:31;;;;;;;;;;;0.20;99.90;;;;;;4953845;28;19926;-91
2023/01/20 20:58:59;;;;;;;;;;;0.20;99.90;;;;;;4953851;28;20194;-91
2023/01/20 21:01:24;;;;;;;;;;;0.20;99.90;;;;;;4955975;28;19926;-91
2023/01/20 21:03:50;;;;;;;;;;;0.20;99.90;;;;;;4992310;28;19941;-93
2023/01/20 21:06:16;;;;;;;;;;;0.20;99.90;;;;;;4955797;28;19926;-93
2023/01/20 21:08:42;;;;;;;;;;;0.20;99.90;;;;;;4971949;28;19930;-94
2023/01/20 21:11:09;;;;;;;;;;;0.10;99.90;;;;;;4954879;28;19989;-92
2023/01/20 21:13:35;;;;;;;;;;;0.10;99.90;;;;;;4976282;28;19929;-94
2023/01/20 21:16:03;;;;;;;;;;;0.20;99.90;;;;;;4971099;28;20315;-93
2023/01/20 21:18:30;;;;;;;;;;;0.20;99.90;;;;;;4976707;28;19933;-94
2023/01/20 21:20:59;;;;;;;;;;;0.10;99.90;;;;;;4972465;28;19972;-92
2023/01/20 21:23:26;;;;;;;;;;;0.10;99.90;;;;;;4970068;28;19925;-95